sensor_id;sensor_type;location;lat;lon;timestamp;temperature;humidity
71672;DHT22;67659;45.554;11.812;2023-04-16T00:00:17;26.60;53.10
71672;DHT22;67659;45.554;11.812;2023-04-16T00:02:43;26.60;53.00
71672;DHT22;67659;45.554;11.812;2023-04-16T00:05:08;26.60;53.00
71672;DHT22;67659;45.554;11.812;2023-04-16T00:07:34;26.60;52.90
71672;DHT22;67659;45.554;11.812;2023-04-16T00:10:00;26.60;52.60
71672;DHT22;67659;45.554;11.812;2023-04-16T00:12:26;26.60;52.60
71672;DHT22;67659;45.554;11.812;2023-04-16T00:14:52;26.50;52.90
71672;DHT22;67659;45.554;11.812;2023-04-16T00:17:18;26.60;53.00
71672;DHT22;67659;45.554;11.812;2023-04-16T00:19:43;26.50;52.80
71672;DHT22;67659;45.554;11.812;2023-04-16T00:22:09;26.50;52.80
71672;DHT22;67659;45.554;11.812;2023-04-16T00:24:35;26.50;52.70
71672;DHT22;67659;45.554;11.812;2023-04-16T00:27:01;26.40;52.80
71672;DHT22;67659;45.554;11.812;2023-04-16T00:29:27;26.50;53.10
71672;DHT22;67659;45.554;11.812;2023-04-16T00:31:55;26.50;53.00
71672;DHT22;67659;45.554;11.812;2023-04-16T00:34:21;26.40;52.60
71672;DHT22;67659;45.554;11.812;2023-04-16T00:36:47;26.50;53.00
71672;DHT22;67659;45.554;11.812;2023-04-16T00:39:13;26.40;52.90
71672;DHT22;67659;45.554;11.812;2023-04-16T00:41:38;26.40;53.00
71672;DHT22;67659;45.554;11.812;2023-04-16T00:44:04;26.40;53.20
71672;DHT22;67659;45.554;11.812;2023-04-16T00:46:30;26.40;52.80
71672;DHT22;67659;45.554;11.812;2023-04-16T00:48:56;26.30;54.60
71672;DHT22;67659;45.554;11.812;2023-04-16T00:51:22;26.40;53.20
71672;DHT22;67659;45.554;11.812;2023-04-16T00:53:48;26.40;53.00
71672;DHT22;67659;45.554;11.812;2023-04-16T00:56:15;26.30;54.50
71672;DHT22;67659;45.554;11.812;2023-04-16T00:58:41;26.30;54.80
71672;DHT22;67659;45.554;11.812;2023-04-16T01:01:07;26.20;54.90
71672;DHT22;67659;45.554;11.812;2023-04-16T01:03:37;26.30;54.60
71672;DHT22;67659;45.554;11.812;2023-04-16T01:06:05;26.20;54.60
71672;DHT22;67659;45.554;11.812;2023-04-16T01:08:32;26.20;54.80
71672;DHT22;67659;45.554;11.812;2023-04-16T01:10:58;26.20;54.60
71672;DHT22;67659;45.554;11.812;2023-04-16T01:13:23;26.20;54.80
71672;DHT22;67659;45.554;11.812;2023-04-16T01:15:50;26.10;54.60
71672;DHT22;67659;45.554;11.812;2023-04-16T01:18:17;26.10;54.80
71672;DHT22;67659;45.554;11.812;2023-04-16T01:20:44;26.00;55.10
71672;DHT22;67659;45.554;11.812;2023-04-16T01:23:10;26.00;55.00
71672;DHT22;67659;45.554;11.812;2023-04-16T01:25:36;26.10;55.00
71672;DHT22;67659;45.554;11.812;2023-04-16T01:28:02;26.10;54.90
71672;DHT22;67659;45.554;11.812;2023-04-16T01:30:28;26.00;54.80
71672;DHT22;67659;45.554;11.812;2023-04-16T01:32:54;26.00;54.90
71672;DHT22;67659;45.554;11.812;2023-04-16T01:35:20;26.00;54.70
71672;DHT22;67659;45.554;11.812;2023-04-16T01:37:46;25.90;54.90
71672;DHT22;67659;45.554;11.812;2023-04-16T01:40:12;25.90;55.10
71672;DHT22;67659;45.554;11.812;2023-04-16T01:42:37;25.90;55.20
71672;DHT22;67659;45.554;11.812;2023-04-16T01:45:04;25.90;55.20
71672;DHT22;67659;45.554;11.812;2023-04-16T01:47:30;25.90;55.00
71672;DHT22;67659;45.554;11.812;2023-04-16T01:49:56;25.80;55.20
71672;DHT22;67659;45.554;11.812;2023-04-16T01:52:22;25.90;55.30
71672;DHT22;67659;45.554;11.812;2023-04-16T01:54:48;25.80;55.20
71672;DHT22;67659;45.554;11.812;2023-04-16T01:57:13;25.70;55.20
71672;DHT22;67659;45.554;11.812;2023-04-16T01:59:39;25.70;55.10
71672;DHT22;67659;45.554;11.812;2023-04-16T02:02:09;25.80;55.30
71672;DHT22;67659;45.554;11.812;2023-04-16T02:04:38;25.90;55.20
71672;DHT22;67659;45.554;11.812;2023-04-16T02:07:05;25.80;55.10
71672;DHT22;67659;45.554;11.812;2023-04-16T02:09:34;25.80;55.10
71672;DHT22;67659;45.554;11.812;2023-04-16T02:12:00;25.80;54.80
71672;DHT22;67659;45.554;11.812;2023-04-16T02:14:28;25.80;55.20
71672;DHT22;67659;45.554;11.812;2023-04-16T02:16:54;25.80;54.90
71672;DHT22;67659;45.554;11.812;2023-04-16T02:19:20;25.70;55.20
71672;DHT22;67659;45.554;11.812;2023-04-16T02:21:46;25.70;55.30
71672;DHT22;67659;45.554;11.812;2023-04-16T02:24:12;25.80;55.00
71672;DHT22;67659;45.554;11.812;2023-04-16T02:26:38;25.70;55.30
71672;DHT22;67659;45.554;11.812;2023-04-16T02:29:04;25.60;55.10
71672;DHT22;67659;45.554;11.812;2023-04-16T02:31:30;25.70;55.30
71672;DHT22;67659;45.554;11.812;2023-04-16T02:33:56;25.70;55.50
71672;DHT22;67659;45.554;11.812;2023-04-16T02:36:22;25.70;55.20
71672;DHT22;67659;45.554;11.812;2023-04-16T02:38:48;25.60;55.50
71672;DHT22;67659;45.554;11.812;2023-04-16T02:41:13;25.60;55.60
71672;DHT22;67659;45.554;11.812;2023-04-16T02:43:39;25.60;55.20
71672;DHT22;67659;45.554;11.812;2023-04-16T02:46:05;25.50;55.30
71672;DHT22;67659;45.554;11.812;2023-04-16T02:48:31;25.50;55.20
71672;DHT22;67659;45.554;11.812;2023-04-16T02:50:57;25.40;55.20
71672;DHT22;67659;45.554;11.812;2023-04-16T02:53:23;25.40;55.40
71672;DHT22;67659;45.554;11.812;2023-04-16T02:55:51;25.40;55.00
71672;DHT22;67659;45.554;11.812;2023-04-16T02:58:18;25.40;55.30
71672;DHT22;67659;45.554;11.812;2023-04-16T03:00:44;25.40;55.20
71672;DHT22;67659;45.554;11.812;2023-04-16T03:03:10;25.40;55.50
71672;DHT22;67659;45.554;11.812;2023-04-16T03:05:35;25.30;55.20
71672;DHT22;67659;45.554;11.812;2023-04-16T03:08:02;25.40;55.30
71672;DHT22;67659;45.554;11.812;2023-04-16T03:10:28;25.30;55.60
71672;DHT22;67659;45.554;11.812;2023-04-16T03:12:54;25.20;55.40
71672;DHT22;67659;45.554;11.812;2023-04-16T03:15:20;25.20;55.50
71672;DHT22;67659;45.554;11.812;2023-04-16T03:17:45;25.30;55.20
71672;DHT22;67659;45.554;11.812;2023-04-16T03:20:11;25.10;55.40
71672;DHT22;67659;45.554;11.812;2023-04-16T03:22:39;25.20;55.30
71672;DHT22;67659;45.554;11.812;2023-04-16T03:25:06;25.10;55.00
71672;DHT22;67659;45.554;11.812;2023-04-16T03:27:32;25.10;55.50
71672;DHT22;67659;45.554;11.812;2023-04-16T03:29:59;25.10;55.10
71672;DHT22;67659;45.554;11.812;2023-04-16T03:32:25;25.00;55.60
71672;DHT22;67659;45.554;11.812;2023-04-16T03:34:51;25.00;55.50
71672;DHT22;67659;45.554;11.812;2023-04-16T03:37:17;25.10;55.40
71672;DHT22;67659;45.554;11.812;2023-04-16T03:39:43;25.00;55.50
71672;DHT22;67659;45.554;11.812;2023-04-16T03:42:08;25.10;55.20
71672;DHT22;67659;45.554;11.812;2023-04-16T03:44:34;25.00;55.40
71672;DHT22;67659;45.554;11.812;2023-04-16T03:47:00;25.00;55.70
71672;DHT22;67659;45.554;11.812;2023-04-16T03:49:26;24.90;55.30
71672;DHT22;67659;45.554;11.812;2023-04-16T03:51:52;24.90;55.60
71672;DHT22;67659;45.554;11.812;2023-04-16T03:54:17;24.90;55.10
71672;DHT22;67659;45.554;11.812;2023-04-16T03:56:43;24.90;55.60
71672;DHT22;67659;45.554;11.812;2023-04-16T03:59:09;24.80;55.40
71672;DHT22;67659;45.554;11.812;2023-04-16T04:01:35;24.80;55.50
71672;DHT22;67659;45.554;11.812;2023-04-16T04:04:01;24.80;55.50
71672;DHT22;67659;45.554;11.812;2023-04-16T04:06:27;24.80;55.20
71672;DHT22;67659;45.554;11.812;2023-04-16T04:08:53;24.70;55.40
71672;DHT22;67659;45.554;11.812;2023-04-16T04:11:19;24.80;55.30
71672;DHT22;67659;45.554;11.812;2023-04-16T04:13:45;24.80;55.60
71672;DHT22;67659;45.554;11.812;2023-04-16T04:16:10;24.70;55.30
71672;DHT22;67659;45.554;11.812;2023-04-16T04:18:36;24.70;55.70
71672;DHT22;67659;45.554;11.812;2023-04-16T04:21:07;24.60;55.50
71672;DHT22;67659;45.554;11.812;2023-04-16T04:23:34;24.70;55.60
71672;DHT22;67659;45.554;11.812;2023-04-16T04:26:00;24.60;55.20
71672;DHT22;67659;45.554;11.812;2023-04-16T04:28:29;24.60;55.20
71672;DHT22;67659;45.554;11.812;2023-04-16T04:30:56;24.60;55.50
71672;DHT22;67659;45.554;11.812;2023-04-16T04:33:22;24.60;55.50
71672;DHT22;67659;45.554;11.812;2023-04-16T04:35:48;24.60;55.40
71672;DHT22;67659;45.554;11.812;2023-04-16T04:38:14;24.60;55.70
71672;DHT22;67659;45.554;11.812;2023-04-16T04:40:44;24.40;55.50
71672;DHT22;67659;45.554;11.812;2023-04-16T04:43:10;24.50;55.50
71672;DHT22;67659;45.554;11.812;2023-04-16T04:45:36;24.40;55.60
71672;DHT22;67659;45.554;11.812;2023-04-16T04:48:02;24.50;55.60
71672;DHT22;67659;45.554;11.812;2023-04-16T04:50:28;24.50;55.70
71672;DHT22;67659;45.554;11.812;2023-04-16T04:52:54;24.40;55.70
71672;DHT22;67659;45.554;11.812;2023-04-16T04:55:20;24.40;55.80
71672;DHT22;67659;45.554;11.812;2023-04-16T04:57:45;24.50;55.70
71672;DHT22;67659;45.554;11.812;2023-04-16T05:00:11;24.40;55.90
71672;DHT22;67659;45.554;11.812;2023-04-16T05:02:37;24.40;55.40
71672;DHT22;67659;45.554;11.812;2023-04-16T05:05:03;24.40;55.60
71672;DHT22;67659;45.554;11.812;2023-04-16T05:07:30;24.40;55.70
71672;DHT22;67659;45.554;11.812;2023-04-16T05:09:56;24.30;55.60
71672;DHT22;67659;45.554;11.812;2023-04-16T05:12:22;24.40;55.90
71672;DHT22;67659;45.554;11.812;2023-04-16T05:14:48;24.30;55.90
71672;DHT22;67659;45.554;11.812;2023-04-16T05:17:14;24.30;55.70
71672;DHT22;67659;45.554;11.812;2023-04-16T05:19:40;24.30;55.50
71672;DHT22;67659;45.554;11.812;2023-04-16T05:22:06;24.40;55.50
71672;DHT22;67659;45.554;11.812;2023-04-16T05:24:31;24.20;55.60
71672;DHT22;67659;45.554;11.812;2023-04-16T05:26:57;24.20;56.00
71672;DHT22;67659;45.554;11.812;2023-04-16T05:29:23;24.20;55.80
71672;DHT22;67659;45.554;11.812;2023-04-16T05:31:49;24.20;55.60
71672;DHT22;67659;45.554;11.812;2023-04-16T05:34:15;24.20;55.50
71672;DHT22;67659;45.554;11.812;2023-04-16T05:36:41;24.10;56.00
71672;DHT22;67659;45.554;11.812;2023-04-16T05:39:07;24.10;56.30
71672;DHT22;67659;45.554;11.812;2023-04-16T05:41:33;24.10;56.00
71672;DHT22;67659;45.554;11.812;2023-04-16T05:43:59;24.10;55.80
71672;DHT22;67659;45.554;11.812;2023-04-16T05:46:25;24.00;55.90
71672;DHT22;67659;45.554;11.812;2023-04-16T05:48:50;24.00;56.20
71672;DHT22;67659;45.554;11.812;2023-04-16T05:51:16;24.10;55.70
71672;DHT22;67659;45.554;11.812;2023-04-16T05:53:42;24.00;55.50
71672;DHT22;67659;45.554;11.812;2023-04-16T05:56:08;23.90;55.60
71672;DHT22;67659;45.554;11.812;2023-04-16T05:58:33;23.80;54.60
71672;DHT22;67659;45.554;11.812;2023-04-16T06:01:00;23.70;54.20
71672;DHT22;67659;45.554;11.812;2023-04-16T06:03:26;23.70;54.30
71672;DHT22;67659;45.554;11.812;2023-04-16T06:05:52;23.70;53.80
71672;DHT22;67659;45.554;11.812;2023-04-16T06:08:18;23.50;55.30
71672;DHT22;67659;45.554;11.812;2023-04-16T06:10:45;23.50;55.20
71672;DHT22;67659;45.554;11.812;2023-04-16T06:13:12;23.50;55.40
71672;DHT22;67659;45.554;11.812;2023-04-16T06:15:37;23.50;55.60
71672;DHT22;67659;45.554;11.812;2023-04-16T06:18:03;23.60;55.60
71672;DHT22;67659;45.554;11.812;2023-04-16T06:20:29;23.60;55.50
71672;DHT22;67659;45.554;11.812;2023-04-16T06:22:56;23.60;55.60
71672;DHT22;67659;45.554;11.812;2023-04-16T06:25:21;23.60;53.80
71672;DHT22;67659;45.554;11.812;2023-04-16T06:27:47;23.60;55.60
71672;DHT22;67659;45.554;11.812;2023-04-16T06:30:15;23.70;54.10
71672;DHT22;67659;45.554;11.812;2023-04-16T06:32:42;23.60;55.90
71672;DHT22;67659;45.554;11.812;2023-04-16T06:35:08;23.60;54.30
71672;DHT22;67659;45.554;11.812;2023-04-16T06:37:34;23.70;54.00
71672;DHT22;67659;45.554;11.812;2023-04-16T06:40:00;23.60;54.20
71672;DHT22;67659;45.554;11.812;2023-04-16T06:42:26;23.70;54.30
71672;DHT22;67659;45.554;11.812;2023-04-16T06:44:52;23.70;54.70
71672;DHT22;67659;45.554;11.812;2023-04-16T06:47:18;23.70;54.70
71672;DHT22;67659;45.554;11.812;2023-04-16T06:49:44;23.70;54.70
71672;DHT22;67659;45.554;11.812;2023-04-16T06:52:10;23.70;54.90
71672;DHT22;67659;45.554;11.812;2023-04-16T06:54:36;23.70;55.10
71672;DHT22;67659;45.554;11.812;2023-04-16T06:57:02;23.70;54.90
71672;DHT22;67659;45.554;11.812;2023-04-16T06:59:28;23.70;55.20
71672;DHT22;67659;45.554;11.812;2023-04-16T07:01:54;23.70;54.90
71672;DHT22;67659;45.554;11.812;2023-04-16T07:04:19;23.70;55.40
71672;DHT22;67659;45.554;11.812;2023-04-16T07:06:46;23.70;55.60
71672;DHT22;67659;45.554;11.812;2023-04-16T07:09:11;23.70;55.20
71672;DHT22;67659;45.554;11.812;2023-04-16T07:11:37;23.70;55.60
71672;DHT22;67659;45.554;11.812;2023-04-16T07:14:03;23.60;55.60
71672;DHT22;67659;45.554;11.812;2023-04-16T07:16:29;23.60;55.40
71672;DHT22;67659;45.554;11.812;2023-04-16T07:18:55;23.70;55.70
71672;DHT22;67659;45.554;11.812;2023-04-16T07:21:21;23.60;55.80
71672;DHT22;67659;45.554;11.812;2023-04-16T07:23:47;23.70;55.80
71672;DHT22;67659;45.554;11.812;2023-04-16T07:26:13;23.80;56.10
71672;DHT22;67659;45.554;11.812;2023-04-16T07:28:38;23.70;55.70
71672;DHT22;67659;45.554;11.812;2023-04-16T07:31:04;23.70;56.00
71672;DHT22;67659;45.554;11.812;2023-04-16T07:33:30;23.70;56.00
71672;DHT22;67659;45.554;11.812;2023-04-16T07:35:56;23.60;56.10
71672;DHT22;67659;45.554;11.812;2023-04-16T07:38:22;23.70;56.10
71672;DHT22;67659;45.554;11.812;2023-04-16T07:40:47;23.80;56.00
71672;DHT22;67659;45.554;11.812;2023-04-16T07:43:13;23.60;55.90
71672;DHT22;67659;45.554;11.812;2023-04-16T07:45:41;23.70;56.10
71672;DHT22;67659;45.554;11.812;2023-04-16T07:48:07;23.70;56.50
71672;DHT22;67659;45.554;11.812;2023-04-16T07:50:32;23.70;56.00
71672;DHT22;67659;45.554;11.812;2023-04-16T07:52:58;23.70;56.50
71672;DHT22;67659;45.554;11.812;2023-04-16T07:55:24;23.70;56.10
71672;DHT22;67659;45.554;11.812;2023-04-16T07:57:49;23.70;56.40
71672;DHT22;67659;45.554;11.812;2023-04-16T08:00:15;23.60;56.20
71672;DHT22;67659;45.554;11.812;2023-04-16T08:02:42;23.70;56.50
71672;DHT22;67659;45.554;11.812;2023-04-16T08:05:08;23.70;56.60
71672;DHT22;67659;45.554;11.812;2023-04-16T08:07:35;23.70;56.60
71672;DHT22;67659;45.554;11.812;2023-04-16T08:10:01;23.70;56.40
71672;DHT22;67659;45.554;11.812;2023-04-16T08:12:27;23.70;56.20
71672;DHT22;67659;45.554;11.812;2023-04-16T08:14:53;23.60;56.80
71672;DHT22;67659;45.554;11.812;2023-04-16T08:17:19;23.70;56.80
71672;DHT22;67659;45.554;11.812;2023-04-16T08:19:45;23.70;56.90
71672;DHT22;67659;45.554;11.812;2023-04-16T08:22:11;23.70;56.60
71672;DHT22;67659;45.554;11.812;2023-04-16T08:24:37;23.70;56.40
71672;DHT22;67659;45.554;11.812;2023-04-16T08:27:03;23.70;56.80
71672;DHT22;67659;45.554;11.812;2023-04-16T08:29:29;23.70;57.00
71672;DHT22;67659;45.554;11.812;2023-04-16T08:31:55;23.70;57.00
71672;DHT22;67659;45.554;11.812;2023-04-16T08:34:21;23.70;56.70
71672;DHT22;67659;45.554;11.812;2023-04-16T08:36:47;23.80;56.50
71672;DHT22;67659;45.554;11.812;2023-04-16T08:39:13;23.70;57.00
71672;DHT22;67659;45.554;11.812;2023-04-16T08:41:42;23.70;56.50
71672;DHT22;67659;45.554;11.812;2023-04-16T08:44:10;23.80;56.80
71672;DHT22;67659;45.554;11.812;2023-04-16T08:46:37;23.70;56.50
71672;DHT22;67659;45.554;11.812;2023-04-16T08:49:06;23.70;55.90
71672;DHT22;67659;45.554;11.812;2023-04-16T08:51:34;23.60;56.10
71672;DHT22;67659;45.554;11.812;2023-04-16T08:54:03;23.70;55.90
71672;DHT22;67659;45.554;11.812;2023-04-16T08:56:30;23.60;58.10
71672;DHT22;67659;45.554;11.812;2023-04-16T08:59:00;23.60;57.70
71672;DHT22;67659;45.554;11.812;2023-04-16T09:01:31;23.60;55.90
71672;DHT22;67659;45.554;11.812;2023-04-16T09:03:58;23.60;57.90
71672;DHT22;67659;45.554;11.812;2023-04-16T09:06:27;23.60;57.80
71672;DHT22;67659;45.554;11.812;2023-04-16T09:08:53;23.60;58.30
71672;DHT22;67659;45.554;11.812;2023-04-16T09:11:20;23.60;57.80
71672;DHT22;67659;45.554;11.812;2023-04-16T09:13:46;23.50;57.50
71672;DHT22;67659;45.554;11.812;2023-04-16T09:16:13;23.60;58.00
71672;DHT22;67659;45.554;11.812;2023-04-16T09:18:40;23.50;57.70
71672;DHT22;67659;45.554;11.812;2023-04-16T09:21:08;23.60;57.20
71672;DHT22;67659;45.554;11.812;2023-04-16T09:23:36;23.50;56.90
71672;DHT22;67659;45.554;11.812;2023-04-16T09:26:04;23.50;56.50
71672;DHT22;67659;45.554;11.812;2023-04-16T09:28:38;23.40;55.70
71672;DHT22;67659;45.554;11.812;2023-04-16T09:31:15;23.30;55.60
71672;DHT22;67659;45.554;11.812;2023-04-16T09:33:42;23.30;55.30
71672;DHT22;67659;45.554;11.812;2023-04-16T09:36:09;23.30;55.70
71672;DHT22;67659;45.554;11.812;2023-04-16T09:38:46;23.30;55.60
71672;DHT22;67659;45.554;11.812;2023-04-16T09:41:12;23.30;55.90
71672;DHT22;67659;45.554;11.812;2023-04-16T09:43:58;23.30;55.80
71672;DHT22;67659;45.554;11.812;2023-04-16T09:46:39;23.40;55.70
71672;DHT22;67659;45.554;11.812;2023-04-16T09:49:14;23.40;55.20
71672;DHT22;67659;45.554;11.812;2023-04-16T09:51:42;23.30;55.60
71672;DHT22;67659;45.554;11.812;2023-04-16T09:54:08;23.40;55.70
71672;DHT22;67659;45.554;11.812;2023-04-16T09:56:44;23.50;55.90
71672;DHT22;67659;45.554;11.812;2023-04-16T09:59:28;23.50;56.60
71672;DHT22;67659;45.554;11.812;2023-04-16T10:01:59;23.50;56.30
71672;DHT22;67659;45.554;11.812;2023-04-16T10:04:26;23.50;56.30
71672;DHT22;67659;45.554;11.812;2023-04-16T10:07:02;23.50;56.50
71672;DHT22;67659;45.554;11.812;2023-04-16T10:09:38;23.60;56.60
71672;DHT22;67659;45.554;11.812;2023-04-16T10:12:05;23.60;55.00
71672;DHT22;67659;45.554;11.812;2023-04-16T10:14:31;23.60;56.70
71672;DHT22;67659;45.554;11.812;2023-04-16T10:16:59;23.60;56.40
71672;DHT22;67659;45.554;11.812;2023-04-16T10:19:26;23.70;54.60
71672;DHT22;67659;45.554;11.812;2023-04-16T10:21:53;23.70;54.90
71672;DHT22;67659;45.554;11.812;2023-04-16T10:24:20;23.70;54.50
71672;DHT22;67659;45.554;11.812;2023-04-16T10:26:49;23.60;54.50
71672;DHT22;67659;45.554;11.812;2023-04-16T10:29:17;23.70;54.70
71672;DHT22;67659;45.554;11.812;2023-04-16T10:31:43;23.60;55.00
71672;DHT22;67659;45.554;11.812;2023-04-16T10:34:10;23.60;55.20
71672;DHT22;67659;45.554;11.812;2023-04-16T10:36:36;23.70;55.40
71672;DHT22;67659;45.554;11.812;2023-04-16T10:39:02;23.60;55.30
71672;DHT22;67659;45.554;11.812;2023-04-16T10:41:31;23.70;55.40
71672;DHT22;67659;45.554;11.812;2023-04-16T10:44:07;23.70;55.50
71672;DHT22;67659;45.554;11.812;2023-04-16T10:46:38;23.70;55.70
71672;DHT22;67659;45.554;11.812;2023-04-16T10:49:18;23.70;55.40
71672;DHT22;67659;45.554;11.812;2023-04-16T10:51:54;23.70;55.50
71672;DHT22;67659;45.554;11.812;2023-04-16T10:54:24;23.70;55.30
71672;DHT22;67659;45.554;11.812;2023-04-16T10:56:51;23.70;55.30
71672;DHT22;67659;45.554;11.812;2023-04-16T10:59:19;23.70;55.60
71672;DHT22;67659;45.554;11.812;2023-04-16T11:01:51;23.70;55.70
71672;DHT22;67659;45.554;11.812;2023-04-16T11:04:32;23.70;55.20
71672;DHT22;67659;45.554;11.812;2023-04-16T11:07:19;23.70;55.20
71672;DHT22;67659;45.554;11.812;2023-04-16T11:09:55;23.80;55.40
71672;DHT22;67659;45.554;11.812;2023-04-16T11:12:32;23.70;55.40
71672;DHT22;67659;45.554;11.812;2023-04-16T11:15:00;23.70;55.50
71672;DHT22;67659;45.554;11.812;2023-04-16T11:17:30;23.70;55.30
71672;DHT22;67659;45.554;11.812;2023-04-16T11:19:57;23.70;55.60
71672;DHT22;67659;45.554;11.812;2023-04-16T11:22:23;23.70;55.60
71672;DHT22;67659;45.554;11.812;2023-04-16T11:24:54;23.70;55.40
71672;DHT22;67659;45.554;11.812;2023-04-16T11:27:22;23.80;55.50
71672;DHT22;67659;45.554;11.812;2023-04-16T11:30:00;23.70;55.60
71672;DHT22;67659;45.554;11.812;2023-04-16T11:32:33;23.80;55.60
71672;DHT22;67659;45.554;11.812;2023-04-16T11:35:01;23.70;55.50
71672;DHT22;67659;45.554;11.812;2023-04-16T11:37:37;23.70;55.30
71672;DHT22;67659;45.554;11.812;2023-04-16T11:40:04;23.80;55.60
71672;DHT22;67659;45.554;11.812;2023-04-16T11:42:32;23.70;55.80
71672;DHT22;67659;45.554;11.812;2023-04-16T11:45:02;23.80;55.80
71672;DHT22;67659;45.554;11.812;2023-04-16T11:47:29;23.80;55.80
71672;DHT22;67659;45.554;11.812;2023-04-16T11:49:57;23.80;55.60
71672;DHT22;67659;45.554;11.812;2023-04-16T11:52:29;23.70;55.50
71672;DHT22;67659;45.554;11.812;2023-04-16T11:54:56;23.70;55.30
71672;DHT22;67659;45.554;11.812;2023-04-16T11:57:25;23.70;55.60
71672;DHT22;67659;45.554;11.812;2023-04-16T11:59:51;23.70;55.50
71672;DHT22;67659;45.554;11.812;2023-04-16T12:02:19;23.70;55.60
71672;DHT22;67659;45.554;11.812;2023-04-16T12:04:58;23.80;55.70
71672;DHT22;67659;45.554;11.812;2023-04-16T12:07:24;23.70;55.40
71672;DHT22;67659;45.554;11.812;2023-04-16T12:09:50;23.70;55.50
71672;DHT22;67659;45.554;11.812;2023-04-16T12:12:30;23.70;55.60
71672;DHT22;67659;45.554;11.812;2023-04-16T12:14:56;23.70;55.70
71672;DHT22;67659;45.554;11.812;2023-04-16T12:17:25;23.80;55.30
71672;DHT22;67659;45.554;11.812;2023-04-16T12:19:55;23.80;55.70
71672;DHT22;67659;45.554;11.812;2023-04-16T12:22:32;23.80;55.60
71672;DHT22;67659;45.554;11.812;2023-04-16T12:25:02;23.70;55.70
71672;DHT22;67659;45.554;11.812;2023-04-16T12:27:46;23.70;55.50
71672;DHT22;67659;45.554;11.812;2023-04-16T12:30:14;23.70;55.50
71672;DHT22;67659;45.554;11.812;2023-04-16T12:32:42;23.80;55.40
71672;DHT22;67659;45.554;11.812;2023-04-16T12:35:11;23.80;55.80
71672;DHT22;67659;45.554;11.812;2023-04-16T12:37:38;23.80;55.30
71672;DHT22;67659;45.554;11.812;2023-04-16T12:40:06;23.70;55.60
71672;DHT22;67659;45.554;11.812;2023-04-16T12:42:32;23.70;55.60
71672;DHT22;67659;45.554;11.812;2023-04-16T12:45:02;23.70;55.40
71672;DHT22;67659;45.554;11.812;2023-04-16T12:47:30;23.70;55.30
71672;DHT22;67659;45.554;11.812;2023-04-16T12:49:56;23.70;55.70
71672;DHT22;67659;45.554;11.812;2023-04-16T12:52:23;23.70;55.20
71672;DHT22;67659;45.554;11.812;2023-04-16T12:54:50;23.70;55.20
71672;DHT22;67659;45.554;11.812;2023-04-16T12:57:15;23.60;55.20
71672;DHT22;67659;45.554;11.812;2023-04-16T12:59:41;23.70;55.40
71672;DHT22;67659;45.554;11.812;2023-04-16T13:02:07;23.70;55.20
71672;DHT22;67659;45.554;11.812;2023-04-16T13:04:33;23.70;55.30
71672;DHT22;67659;45.554;11.812;2023-04-16T13:06:59;23.70;55.30
71672;DHT22;67659;45.554;11.812;2023-04-16T13:09:25;23.70;55.30
71672;DHT22;67659;45.554;11.812;2023-04-16T13:11:51;23.70;55.20
71672;DHT22;67659;45.554;11.812;2023-04-16T13:14:19;23.70;55.30
71672;DHT22;67659;45.554;11.812;2023-04-16T13:16:45;23.80;55.10
71672;DHT22;67659;45.554;11.812;2023-04-16T13:19:11;23.70;55.50
71672;DHT22;67659;45.554;11.812;2023-04-16T13:21:37;23.70;54.80
71672;DHT22;67659;45.554;11.812;2023-04-16T13:24:03;23.70;55.20
71672;DHT22;67659;45.554;11.812;2023-04-16T13:26:29;23.70;55.00
71672;DHT22;67659;45.554;11.812;2023-04-16T13:28:55;23.60;55.20
71672;DHT22;67659;45.554;11.812;2023-04-16T13:31:21;23.60;55.00
71672;DHT22;67659;45.554;11.812;2023-04-16T13:33:47;23.60;55.00
71672;DHT22;67659;45.554;11.812;2023-04-16T13:36:13;23.60;56.90
71672;DHT22;67659;45.554;11.812;2023-04-16T13:38:39;23.70;55.40
71672;DHT22;67659;45.554;11.812;2023-04-16T13:41:05;23.70;55.10
71672;DHT22;67659;45.554;11.812;2023-04-16T13:43:31;23.70;54.90
71672;DHT22;67659;45.554;11.812;2023-04-16T13:45:57;23.60;55.10
71672;DHT22;67659;45.554;11.812;2023-04-16T13:48:23;23.70;54.90
71672;DHT22;67659;45.554;11.812;2023-04-16T13:50:49;23.60;54.50
71672;DHT22;67659;45.554;11.812;2023-04-16T13:53:15;23.60;55.20
71672;DHT22;67659;45.554;11.812;2023-04-16T13:55:42;23.60;56.40
71672;DHT22;67659;45.554;11.812;2023-04-16T13:58:07;23.60;54.90
71672;DHT22;67659;45.554;11.812;2023-04-16T14:00:33;23.60;56.60
71672;DHT22;67659;45.554;11.812;2023-04-16T14:03:00;23.60;56.70
71672;DHT22;67659;45.554;11.812;2023-04-16T14:05:26;23.60;56.50
71672;DHT22;67659;45.554;11.812;2023-04-16T14:07:52;23.60;56.90
71672;DHT22;67659;45.554;11.812;2023-04-16T14:10:18;23.60;56.90
71672;DHT22;67659;45.554;11.812;2023-04-16T14:12:44;23.50;56.60
71672;DHT22;67659;45.554;11.812;2023-04-16T14:15:10;23.60;56.30
71672;DHT22;67659;45.554;11.812;2023-04-16T14:17:40;23.60;54.40
71672;DHT22;67659;45.554;11.812;2023-04-16T14:20:07;23.50;55.70
71672;DHT22;67659;45.554;11.812;2023-04-16T14:22:33;23.50;56.00
71672;DHT22;67659;45.554;11.812;2023-04-16T14:24:59;23.50;56.20
71672;DHT22;67659;45.554;11.812;2023-04-16T14:27:26;23.50;55.80
71672;DHT22;67659;45.554;11.812;2023-04-16T14:29:53;23.50;56.20
71672;DHT22;67659;45.554;11.812;2023-04-16T14:32:19;23.50;56.10
71672;DHT22;67659;45.554;11.812;2023-04-16T14:34:45;23.40;56.20
71672;DHT22;67659;45.554;11.812;2023-04-16T14:37:11;23.50;56.20
71672;DHT22;67659;45.554;11.812;2023-04-16T14:39:37;23.50;56.40
71672;DHT22;67659;45.554;11.812;2023-04-16T14:42:04;23.50;56.40
71672;DHT22;67659;45.554;11.812;2023-04-16T14:44:31;23.50;56.00
71672;DHT22;67659;45.554;11.812;2023-04-16T14:46:57;23.50;56.10
71672;DHT22;67659;45.554;11.812;2023-04-16T14:49:24;23.50;56.20
71672;DHT22;67659;45.554;11.812;2023-04-16T14:51:50;23.50;56.40
71672;DHT22;67659;45.554;11.812;2023-04-16T14:54:17;23.50;56.30
71672;DHT22;67659;45.554;11.812;2023-04-16T14:56:44;23.50;56.20
71672;DHT22;67659;45.554;11.812;2023-04-16T14:59:11;23.50;56.20
71672;DHT22;67659;45.554;11.812;2023-04-16T15:01:38;23.60;56.20
71672;DHT22;67659;45.554;11.812;2023-04-16T15:04:06;23.50;56.20
71672;DHT22;67659;45.554;11.812;2023-04-16T15:06:32;23.50;56.40
71672;DHT22;67659;45.554;11.812;2023-04-16T15:08:58;23.40;56.30
71672;DHT22;67659;45.554;11.812;2023-04-16T15:11:24;23.40;55.80
71672;DHT22;67659;45.554;11.812;2023-04-16T15:13:51;23.50;56.00